createdAt,value
2022-09-26T06:36:44.495Z,999.64
2022-09-26T06:37:44.452Z,999.55
2022-09-26T06:38:44.455Z,999.56
2022-09-26T06:39:44.444Z,999.52
2022-09-26T06:40:44.443Z,999.52
2022-09-26T06:41:44.411Z,999.48
2022-09-26T06:42:44.399Z,999.46
2022-09-26T06:43:44.387Z,999.42
2022-09-26T06:44:44.396Z,999.40
2022-09-26T06:45:44.361Z,999.39
2022-09-26T06:46:44.462Z,999.40
2022-09-26T06:47:44.336Z,999.40
2022-09-26T06:48:44.324Z,999.34
2022-09-26T06:49:44.333Z,999.36
2022-09-26T06:50:44.300Z,999.30
2022-09-26T06:51:44.287Z,999.33
2022-09-26T06:52:44.310Z,999.34
2022-09-26T06:53:44.279Z,999.33
2022-09-26T06:54:44.263Z,999.33
2022-09-26T06:55:44.259Z,999.29
2022-09-26T06:56:44.264Z,999.29
2022-09-26T06:57:44.225Z,999.26
2022-09-26T06:58:44.208Z,999.29
2022-09-26T06:59:44.204Z,999.25
2022-09-26T07:00:44.474Z,999.22
2022-09-26T07:01:44.337Z,999.23
2022-09-26T07:02:44.180Z,999.17
2022-09-26T07:03:45.953Z,999.18
2022-09-26T07:04:44.144Z,999.20
2022-09-26T07:05:44.136Z,999.09
2022-09-26T07:06:44.140Z,999.09
2022-09-26T07:07:44.140Z,999.07
2022-09-26T07:09:01.347Z,999.06
2022-09-26T07:09:45.091Z,999.05
2022-09-26T07:10:44.078Z,999.06
2022-09-26T07:12:12.434Z,999.07
2022-09-26T07:12:45.068Z,999.01
2022-09-26T07:13:44.039Z,998.97
2022-09-26T07:14:44.025Z,998.97
2022-09-26T07:15:44.067Z,999.02
2022-09-26T07:16:44.016Z,998.93
2022-09-26T07:17:43.995Z,998.92
2022-09-26T07:18:43.992Z,998.92
2022-09-26T07:19:43.980Z,998.85
2022-09-26T07:20:43.957Z,998.86
2022-09-26T07:21:43.961Z,998.97
2022-09-26T07:22:43.956Z,998.87
2022-09-26T07:23:43.923Z,998.96
2022-09-26T07:24:43.970Z,998.97
2022-09-26T07:25:43.899Z,998.96
2022-09-26T07:26:43.894Z,998.86
2022-09-26T07:27:43.897Z,998.86
2022-09-26T07:28:43.873Z,998.86
2022-09-26T07:29:43.882Z,998.85
2022-09-26T07:30:43.853Z,998.82
2022-09-26T07:31:43.890Z,998.88
2022-09-26T07:32:43.838Z,998.78
2022-09-26T07:33:43.817Z,998.81
2022-09-26T07:34:43.807Z,998.84
2022-09-26T07:35:43.789Z,998.76
2022-09-26T07:36:43.783Z,998.81
2022-09-26T07:37:43.765Z,998.80
2022-09-26T07:38:43.784Z,998.80
2022-09-26T07:39:43.741Z,998.76
2022-09-26T07:40:43.931Z,998.74
2022-09-26T07:41:43.733Z,998.72
2022-09-26T07:42:54.413Z,998.74
2022-09-26T07:45:44.672Z,998.67
2022-09-26T07:46:43.754Z,998.68
2022-09-26T07:47:43.655Z,998.71
2022-09-26T07:48:43.639Z,998.71
2022-09-26T07:49:43.643Z,998.67
2022-09-26T07:50:43.617Z,998.70
2022-09-26T07:51:43.614Z,998.70
2022-09-26T07:52:43.601Z,998.71
2022-09-26T07:53:43.602Z,998.70
2022-09-26T07:54:43.577Z,998.66
2022-09-26T07:55:43.589Z,998.68
2022-09-26T07:56:43.598Z,998.67
2022-09-26T07:57:43.543Z,998.64
2022-09-26T07:58:43.525Z,998.69
2022-09-26T07:59:43.530Z,998.65
2022-09-26T08:00:43.521Z,998.65
2022-09-26T08:01:43.549Z,998.64
2022-09-26T08:02:43.543Z,998.63
2022-09-26T08:03:43.472Z,998.63
2022-09-26T08:04:43.463Z,998.62
2022-09-26T08:05:43.502Z,998.57
2022-09-26T08:06:43.440Z,998.60
2022-09-26T08:07:43.424Z,998.57
2022-09-26T08:08:43.427Z,998.63
2022-09-26T08:09:43.408Z,998.66
2022-09-26T08:10:43.403Z,998.57
2022-09-26T08:11:43.391Z,998.59
2022-09-26T08:12:43.387Z,998.53
2022-09-26T08:13:43.364Z,998.57
2022-09-26T08:14:43.343Z,998.59
2022-09-26T08:15:43.398Z,998.63
2022-09-26T08:16:43.328Z,998.61
2022-09-26T08:17:43.323Z,998.57
2022-09-26T08:18:43.299Z,998.58
2022-09-26T08:19:43.300Z,998.55
2022-09-26T08:20:43.321Z,998.49
2022-09-26T08:21:43.266Z,998.56
2022-09-26T08:22:43.258Z,998.51
2022-09-26T08:23:43.242Z,998.50
2022-09-26T08:24:43.241Z,998.58
2022-09-26T08:25:43.226Z,998.51
2022-09-26T08:26:44.639Z,998.46
2022-09-26T08:27:43.204Z,998.46
2022-09-26T08:28:43.217Z,998.55
2022-09-26T08:29:43.175Z,998.48
2022-09-26T08:30:43.166Z,998.46
2022-09-26T08:31:43.227Z,998.48
2022-09-26T08:32:43.158Z,998.45
2022-09-26T08:33:43.139Z,998.46
2022-09-26T08:34:43.124Z,998.44
2022-09-26T08:35:43.114Z,998.46
2022-09-26T08:36:43.096Z,998.48
2022-09-26T08:37:43.099Z,998.43
2022-09-26T08:38:43.084Z,998.45
2022-09-26T08:39:43.059Z,998.40
2022-09-26T08:40:43.140Z,998.38
2022-09-26T08:41:43.047Z,998.42
2022-09-26T08:42:43.044Z,998.37
2022-09-26T08:43:43.017Z,998.51
2022-09-26T08:44:43.023Z,998.46
2022-09-26T08:45:46.798Z,998.40
2022-09-26T08:46:43.112Z,998.43
2022-09-26T08:47:42.978Z,998.38
2022-09-26T08:48:42.976Z,998.44
2022-09-26T08:49:42.958Z,998.40
2022-09-26T08:50:42.942Z,998.40
2022-09-26T08:51:42.926Z,998.40
2022-09-26T08:52:42.911Z,998.37
2022-09-26T08:53:42.935Z,998.37
2022-09-26T08:54:42.889Z,998.42
2022-09-26T08:55:42.891Z,998.45
2022-09-26T08:56:42.870Z,998.40
2022-09-26T08:57:42.862Z,998.36
2022-09-26T08:58:42.860Z,998.55
2022-09-26T08:59:42.855Z,998.41
2022-09-26T09:00:42.860Z,998.34
2022-09-26T09:01:42.938Z,998.38
2022-09-26T09:02:42.983Z,998.38
2022-09-26T09:03:42.805Z,998.33
2022-09-26T09:04:42.814Z,998.32
2022-09-26T09:05:42.770Z,998.48
2022-09-26T09:06:42.753Z,998.42
2022-09-26T09:07:42.749Z,998.43
2022-09-26T09:08:42.735Z,998.37
2022-09-26T09:09:42.749Z,998.41
2022-09-26T09:10:42.710Z,998.47
2022-09-26T09:11:42.696Z,998.53
2022-09-26T09:12:42.692Z,998.52
2022-09-26T09:13:42.693Z,998.44
2022-09-26T09:14:42.662Z,998.48
2022-09-26T09:15:42.729Z,998.39
2022-09-26T09:16:42.669Z,998.37
2022-09-26T09:17:42.649Z,998.38
2022-09-26T09:18:42.618Z,998.32
2022-09-26T09:19:42.622Z,998.36
2022-09-26T09:20:42.630Z,998.34
2022-09-26T09:21:42.614Z,998.27
2022-09-26T09:22:42.571Z,998.30
2022-09-26T09:23:42.567Z,998.35
2022-09-26T09:24:42.555Z,998.24
2022-09-26T09:25:42.548Z,998.26
2022-09-26T09:28:04.076Z,998.29
2022-09-26T09:28:43.511Z,998.34
2022-09-26T09:29:43.067Z,998.24
2022-09-26T09:30:42.481Z,998.27
2022-09-26T09:31:42.549Z,998.23
2022-09-26T09:32:42.484Z,998.22
2022-09-26T09:33:42.454Z,998.17
2022-09-26T09:34:42.443Z,998.26
2022-09-26T09:35:42.430Z,998.21
2022-09-26T09:36:42.419Z,998.19
2022-09-26T09:37:42.422Z,998.13
2022-09-26T09:38:42.397Z,998.20
2022-09-26T09:39:42.379Z,998.15
2022-09-26T09:40:42.422Z,998.12
2022-09-26T09:41:42.361Z,998.10
2022-09-26T09:42:42.361Z,998.03
2022-09-26T09:43:42.344Z,998.05
2022-09-26T09:44:46.497Z,998.10
2022-09-26T09:45:42.319Z,998.04
2022-09-26T09:46:42.367Z,998.05
2022-09-26T09:47:42.291Z,997.94
2022-09-26T09:48:42.337Z,997.99
2022-09-26T09:49:42.276Z,997.94
2022-09-26T09:50:42.252Z,997.94
2022-09-26T09:51:42.248Z,997.86
2022-09-26T09:52:42.236Z,997.90
2022-09-26T09:53:42.239Z,997.82
2022-09-26T09:54:42.213Z,997.85
2022-09-26T09:55:42.203Z,997.84
2022-09-26T09:56:42.184Z,997.90
2022-09-26T09:57:42.181Z,997.84
2022-09-26T09:58:42.194Z,997.83
2022-09-26T09:59:42.157Z,997.81
2022-09-26T10:00:42.150Z,997.78
2022-09-26T10:01:42.137Z,997.84
2022-09-26T10:02:42.149Z,997.82
2022-09-26T10:03:42.112Z,997.78
2022-09-26T10:04:42.142Z,997.79
2022-09-26T10:05:42.081Z,997.80
2022-09-26T10:06:46.579Z,997.74
2022-09-26T10:07:43.085Z,997.72
2022-09-26T10:08:42.046Z,997.71
2022-09-26T10:09:42.086Z,997.68
2022-09-26T10:10:42.033Z,997.65
2022-09-26T10:11:42.021Z,997.64
2022-09-26T10:12:42.010Z,997.61
2022-09-26T10:13:41.992Z,997.62
2022-09-26T10:14:42.004Z,997.58
2022-09-26T10:15:42.025Z,997.56
2022-09-26T10:16:41.955Z,997.56
2022-09-26T10:17:41.947Z,997.58
2022-09-26T10:18:41.942Z,997.57
2022-09-26T10:19:41.927Z,997.56
2022-09-26T10:20:41.953Z,997.58
2022-09-26T10:21:41.901Z,997.50
2022-09-26T10:22:41.895Z,997.48
2022-09-26T10:23:41.884Z,997.57
2022-09-26T10:24:41.871Z,997.48
2022-09-26T10:25:41.877Z,997.49
2022-09-26T10:26:41.844Z,997.52
2022-09-26T10:27:41.838Z,997.50
2022-09-26T10:28:41.826Z,997.46
2022-09-26T10:29:41.810Z,997.42
2022-09-26T10:30:41.809Z,997.41
2022-09-26T10:31:43.077Z,997.39
2022-09-26T10:32:41.779Z,997.35
2022-09-26T10:33:41.769Z,997.35
2022-09-26T10:34:41.750Z,997.36
2022-09-26T10:35:41.767Z,997.41
2022-09-26T10:36:41.757Z,997.38
2022-09-26T10:37:41.733Z,997.33
2022-09-26T10:38:41.713Z,997.32
2022-09-26T10:39:41.702Z,997.35
2022-09-26T10:40:41.784Z,997.29
2022-09-26T10:41:41.674Z,997.27
2022-09-26T10:42:41.684Z,997.28
2022-09-26T10:43:41.650Z,997.25
2022-09-26T10:44:41.683Z,997.24
2022-09-26T10:45:41.673Z,997.22
2022-09-26T10:46:41.709Z,997.20
2022-09-26T10:47:41.643Z,997.20
2022-09-26T10:48:41.598Z,997.20
2022-09-26T10:49:41.600Z,997.18
2022-09-26T10:50:41.590Z,997.18
2022-09-26T10:51:41.607Z,997.11
2022-09-26T10:52:41.580Z,997.11
2022-09-26T10:53:41.553Z,997.13
2022-09-26T10:54:41.549Z,997.09
2022-09-26T10:55:41.513Z,997.07
2022-09-26T10:56:41.511Z,997.05
2022-09-26T10:57:41.495Z,997.00
2022-09-26T10:58:41.484Z,996.93
2022-09-26T10:59:41.475Z,996.91
2022-09-26T11:00:41.457Z,996.92
2022-09-26T11:01:41.562Z,996.93
2022-09-26T11:02:41.452Z,996.89
2022-09-26T11:03:41.521Z,996.91
2022-09-26T11:04:41.419Z,996.86
2022-09-26T11:05:41.400Z,996.87
2022-09-26T11:06:41.414Z,996.84
2022-09-26T11:07:41.376Z,996.83
2022-09-26T11:08:41.387Z,996.86
2022-09-26T11:09:41.354Z,996.81
2022-09-26T11:10:41.346Z,996.76
2022-09-26T11:11:41.353Z,996.76
2022-09-26T11:12:41.331Z,996.75
2022-09-26T11:13:41.308Z,996.68
2022-09-26T11:14:41.312Z,996.68
2022-09-26T11:15:41.343Z,996.65
2022-09-26T11:16:41.297Z,996.59
2022-09-26T11:17:41.307Z,996.55
2022-09-26T11:18:41.257Z,996.52
2022-09-26T11:19:41.309Z,996.50
2022-09-26T11:20:41.320Z,996.51
2022-09-26T11:21:41.349Z,996.45
2022-09-26T11:22:41.210Z,996.42
2022-09-26T11:23:41.201Z,996.41
2022-09-26T11:24:41.237Z,996.40
2022-09-26T11:25:41.182Z,996.35
2022-09-26T11:26:41.160Z,996.34
2022-09-26T11:27:41.164Z,996.33
2022-09-26T11:28:41.141Z,996.39
2022-09-26T11:29:41.133Z,996.35
2022-09-26T11:30:41.123Z,996.29
2022-09-26T11:31:41.206Z,996.30
2022-09-26T11:32:41.371Z,996.21
2022-09-26T11:33:41.198Z,996.23
2022-09-26T11:34:41.080Z,996.19
2022-09-26T11:35:41.057Z,996.41
2022-09-26T11:36:41.060Z,996.23
2022-09-26T11:37:41.059Z,996.24
2022-09-26T11:38:41.023Z,996.19
2022-09-26T11:39:41.022Z,996.18
2022-09-26T11:40:41.153Z,996.17
2022-09-26T11:41:40.997Z,996.08
2022-09-26T11:42:41.000Z,995.95
2022-09-26T11:43:40.969Z,996.08
2022-09-26T11:44:40.957Z,996.00
2022-09-26T11:45:45.181Z,996.00
2022-09-26T11:46:41.999Z,995.95
2022-09-26T11:47:40.925Z,996.01
2022-09-26T11:48:40.932Z,995.94
2022-09-26T11:49:40.911Z,995.94
2022-09-26T11:50:40.898Z,995.99
2022-09-26T11:51:40.876Z,995.87
2022-09-26T11:52:44.289Z,995.87
2022-09-26T11:53:41.880Z,996.02
2022-09-26T11:54:40.842Z,995.82
2022-09-26T11:55:40.963Z,995.83
2022-09-26T11:56:40.848Z,995.88
2022-09-26T11:57:40.821Z,995.91
2022-09-26T11:58:40.797Z,995.85
2022-09-26T11:59:40.801Z,995.85
2022-09-26T12:00:40.777Z,995.79
2022-09-26T12:01:40.765Z,995.87
